Time;durP1;ratioP1;P1;durP2;ratioP2;P2;SDS_P1;SDS_P2;PMS_P1;PMS_P2;Temp;Humidity;BMP_temperature;BMP_pressure;BME280_temperature;BME280_humidity;BME280_pressure;Samples;Min_cycle;Max_cycle;Signal;HPM_P1;HPM_P2
2022/03/25 00:03:25;;;;;;;30.33;25.88;;;;;;;12.75;34.75;101196.16;10356133;28;20135;-63
2022/03/25 00:08:26;;;;;;;29.67;25.23;;;;;;;12.61;34.50;101198.06;10349959;28;20594;-63
2022/03/25 00:13:28;;;;;;;28.92;23.83;;;;;;;12.53;34.70;101190.56;10356638;28;20049;-62
2022/03/25 00:18:29;;;;;;;31.17;26.10;;;;;;;12.50;34.84;101192.63;10355198;28;20124;-61
2022/03/25 00:23:31;;;;;;;30.80;25.83;;;;;;;12.38;35.25;101192.59;10353752;28;20053;-62
2022/03/25 00:28:32;;;;;;;30.55;25.10;;;;;;;12.43;35.29;101215.41;10360140;28;20621;-62
2022/03/25 00:33:36;;;;;;;28.80;25.48;;;;;;;12.24;35.56;101190.06;10355612;28;20092;-63
2022/03/25 00:38:38;;;;;;;31.27;25.37;;;;;;;12.29;35.37;101214.59;10355677;28;20053;-61
2022/03/25 00:43:42;;;;;;;27.80;24.10;;;;;;;12.25;35.69;101209.59;10355004;28;20299;-60
2022/03/25 00:48:43;;;;;;;24.97;20.37;;;;;;;12.11;36.18;101199.91;10353739;28;20061;-61
2022/03/25 00:53:45;;;;;;;31.13;26.48;;;;;;;11.98;36.02;101192.78;10353890;28;20629;-60
2022/03/25 00:58:47;;;;;;;31.27;24.50;;;;;;;11.93;35.95;101192.25;10353927;28;20049;-60
2022/03/25 01:03:48;;;;;;;29.48;24.55;;;;;;;11.83;36.33;101180.53;10353481;28;20072;-61
2022/03/25 01:08:55;;;;;;;37.08;26.88;;;;;;;11.89;36.55;101205.88;10352768;28;20053;-62
2022/03/25 01:13:58;;;;;;;32.47;25.63;;;;;;;11.84;36.44;101195.53;10361818;28;20467;-60
2022/03/25 01:19:00;;;;;;;30.35;25.45;;;;;;;11.83;36.39;101201.88;10353978;28;20803;-61
2022/03/25 01:24:02;;;;;;;34.25;26.55;;;;;;;11.77;36.70;101194.28;10353758;28;20665;-61
2022/03/25 01:29:05;;;;;;;32.05;26.95;;;;;;;11.68;36.95;101185.97;10353175;28;20049;-60
2022/03/25 01:34:06;;;;;;;33.35;26.67;;;;;;;11.63;36.92;101190.78;10351211;28;20318;-61
2022/03/25 01:39:08;;;;;;;31.23;24.67;;;;;;;11.71;37.01;101189.38;10353352;28;20038;-60
2022/03/25 01:44:11;;;;;;;33.35;25.65;;;;;;;11.57;37.39;101171.69;10350631;28;20060;-60
2022/03/25 01:49:13;;;;;;;33.15;24.73;;;;;;;11.56;37.41;101173.50;10353783;28;20053;-60
2022/03/25 01:54:26;;;;;;;28.80;23.60;;;;;;;11.47;37.43;101164.34;10353538;28;20054;-62
2022/03/25 01:59:28;;;;;;;29.63;24.20;;;;;;;11.49;37.58;101173.06;10351946;28;20061;-62
2022/03/25 02:04:30;;;;;;;28.80;23.65;;;;;;;11.39;38.15;101171.16;10356604;28;20053;-62
2022/03/25 02:09:31;;;;;;;29.60;23.63;;;;;;;11.41;37.96;101180.75;10353295;28;20050;-61
2022/03/25 02:14:33;;;;;;;29.73;24.48;;;;;;;11.36;37.98;101174.03;10353018;28;20586;-61
2022/03/25 02:19:34;;;;;;;29.27;25.42;;;;;;;11.31;37.97;101153.03;10349976;28;20064;-61
2022/03/25 02:24:35;;;;;;;30.65;23.77;;;;;;;11.27;37.92;101157.72;10349171;28;20049;-62
2022/03/25 02:29:38;;;;;;;29.23;23.10;;;;;;;11.34;38.04;101174.13;10344836;28;20063;-62
2022/03/25 02:34:40;;;;;;;31.90;25.13;;;;;;;11.19;38.19;101160.06;10351672;28;20666;-61
2022/03/25 02:39:41;;;;;;;31.33;25.17;;;;;;;11.22;38.51;101170.50;10351213;28;20053;-61
2022/03/25 02:44:43;;;;;;;29.67;23.85;;;;;;;11.14;38.69;101172.84;10354505;28;20055;-62
2022/03/25 02:49:44;;;;;;;33.22;24.45;;;;;;;11.08;38.36;101162.59;10349159;28;20056;-61
2022/03/25 02:54:45;;;;;;;29.88;23.83;;;;;;;11.03;38.92;101164.72;10352401;28;20579;-62
2022/03/25 02:59:47;;;;;;;31.38;23.65;;;;;;;11.06;38.86;101167.19;10352031;28;20053;-62
2022/03/25 03:04:49;;;;;;;34.85;25.27;;;;;;;11.05;38.79;101173.44;10351612;28;20042;-61
2022/03/25 03:09:51;;;;;;;30.13;23.75;;;;;;;11.03;38.82;101172.72;10361025;28;20055;-61
2022/03/25 03:14:52;;;;;;;30.50;24.92;;;;;;;10.97;39.19;101176.63;10358869;28;20064;-64
2022/03/25 03:19:54;;;;;;;31.80;24.45;;;;;;;10.96;38.99;101170.47;10359392;28;20136;-61
2022/03/25 03:24:55;;;;;;;29.63;24.65;;;;;;;10.87;39.61;101178.22;10354993;28;20160;-62
2022/03/25 03:29:58;;;;;;;31.27;25.48;;;;;;;10.88;39.47;101171.94;10357637;28;20050;-62
2022/03/25 03:34:59;;;;;;;28.83;23.98;;;;;;;10.95;39.16;101168.75;10360930;28;20136;-61
2022/03/25 03:40:01;;;;;;;28.92;24.42;;;;;;;10.90;39.47;101170.00;10358334;28;20079;-61
2022/03/25 03:45:03;;;;;;;29.77;24.50;;;;;;;10.83;39.62;101169.59;10357245;28;20042;-62
2022/03/25 03:50:08;;;;;;;33.83;25.20;;;;;;;10.78;39.69;101174.38;10355062;28;20049;-61
2022/03/25 03:55:11;;;;;;;34.40;24.02;;;;;;;10.74;39.53;101175.53;10354314;28;20520;-62
2022/03/25 04:00:13;;;;;;;34.38;26.10;;;;;;;10.64;39.94;101167.28;10356905;28;20058;-61
2022/03/25 04:05:15;;;;;;;34.55;24.20;;;;;;;10.67;40.06;101168.91;10361374;28;20046;-61
2022/03/25 04:10:17;;;;;;;32.85;24.75;;;;;;;10.66;39.74;101161.84;10359371;28;20045;-60
2022/03/25 04:15:20;;;;;;;32.60;24.45;;;;;;;10.62;40.12;101171.88;10357118;28;20068;-61
2022/03/25 04:20:21;;;;;;;32.55;25.48;;;;;;;10.60;40.26;101163.97;10356770;28;20068;-61
2022/03/25 04:25:23;;;;;;;28.48;23.00;;;;;;;10.58;40.32;101170.34;10365110;28;20111;-61
2022/03/25 04:30:30;;;;;;;33.13;25.75;;;;;;;10.32;40.72;101174.69;10355736;28;20045;-61
2022/03/25 04:35:32;;;;;;;32.75;24.50;;;;;;;10.38;40.76;101175.19;10357380;28;20501;-62
2022/03/25 04:40:34;;;;;;;33.13;23.95;;;;;;;10.36;41.17;101186.91;10363603;28;20052;-60
2022/03/25 04:45:35;;;;;;;27.95;23.85;;;;;;;10.33;40.78;101179.06;10370491;28;20080;-61
2022/03/25 04:50:38;;;;;;;31.25;24.88;;;;;;;10.06;40.81;101153.28;10362225;28;20075;-60
2022/03/25 04:55:40;;;;;;;31.83;23.75;;;;;;;10.19;41.09;101179.94;10360883;28;20064;-61
2022/03/25 05:00:41;;;;;;;39.67;27.92;;;;;;;10.24;41.42;101197.34;10357082;28;20061;-61
2022/03/25 05:05:42;;;;;;;34.20;26.35;;;;;;;10.08;41.22;101183.31;10360471;28;20049;-61
2022/03/25 05:10:44;;;;;;;33.00;24.73;;;;;;;10.12;41.48;101190.16;10356775;28;20160;-61
2022/03/25 05:16:01;;;;;;;34.00;26.48;;;;;;;10.03;41.97;101193.41;10358806;28;20045;-61
2022/03/25 05:21:05;;;;;;;30.75;24.67;;;;;;;9.99;41.87;101205.16;10359725;28;20041;-61
2022/03/25 05:26:06;;;;;;;34.10;24.65;;;;;;;9.93;42.02;101210.88;10348637;28;20049;-61
2022/03/25 05:31:11;;;;;;;30.60;24.38;;;;;;;9.98;41.85;101219.41;10355615;28;20045;-62
2022/03/25 05:36:13;;;;;;;30.35;24.27;;;;;;;9.99;42.13;101218.47;10351038;28;20041;-61
2022/03/25 05:41:14;;;;;;;35.63;24.35;;;;;;;10.04;41.77;101224.34;10351571;28;20049;-63
2022/03/25 05:46:16;;;;;;;30.77;24.88;;;;;;;10.02;42.17;101231.56;10336396;28;20492;-61
2022/03/25 05:51:18;;;;;;;31.70;23.70;;;;;;;10.08;42.04;101229.38;10339285;28;20191;-61
2022/03/25 05:56:20;;;;;;;32.83;24.75;;;;;;;9.95;42.11;101217.78;10336174;28;20057;-62
2022/03/25 06:01:21;;;;;;;32.60;25.75;;;;;;;10.01;42.16;101241.38;10335996;28;20064;-61
2022/03/25 06:06:23;;;;;;;29.60;22.65;;;;;;;10.14;41.93;101252.09;10341524;28;20052;-60
2022/03/25 06:11:24;;;;;;;31.42;24.95;;;;;;;10.15;41.76;101248.47;10340879;28;20467;-61
2022/03/25 06:16:26;;;;;;;29.73;23.27;;;;;;;10.17;42.03;101249.22;10344649;28;20697;-60
2022/03/25 06:21:27;;;;;;;31.73;25.40;;;;;;;10.35;41.77;101259.69;10342418;28;20073;-62
2022/03/25 06:26:29;;;;;;;35.47;25.55;;;;;;;10.41;41.75;101238.84;10343094;28;20124;-60
2022/03/25 06:31:31;;;;;;;33.25;24.52;;;;;;;10.66;41.48;101257.72;10338839;28;20058;-60
2022/03/25 06:36:32;;;;;;;30.67;23.20;;;;;;;10.93;47.75;101250.59;10341933;28;21437;-61
2022/03/25 06:41:33;;;;;;;33.22;25.08;;;;;;;11.70;40.81;101231.19;10346608;28;20049;-62
2022/03/25 06:46:35;;;;;;;31.15;23.30;;;;;;;12.06;38.84;101250.09;10349007;28;20056;-59
2022/03/25 06:51:36;;;;;;;31.40;25.23;;;;;;;11.79;38.94;101243.91;10349557;28;20145;-63
2022/03/25 06:56:39;;;;;;;36.58;25.52;;;;;;;11.77;39.03;101255.63;10352966;28;20049;-64
2022/03/25 07:01:41;;;;;;;30.27;23.42;;;;;;;11.73;39.13;101262.16;10346966;28;20060;-62
2022/03/25 07:06:48;;;;;;;33.08;24.50;;;;;;;11.84;39.15;101267.56;10348338;28;20479;-66
2022/03/25 07:11:49;;;;;;;30.83;25.75;;;;;;;11.94;38.61;101267.84;10347059;28;20056;-61
2022/03/25 07:16:51;;;;;;;31.33;24.60;;;;;;;11.96;38.95;101272.06;10349625;28;20049;-61
2022/03/25 07:21:53;;;;;;;31.05;23.35;;;;;;;12.24;38.44;101280.81;10362629;28;20050;-59
2022/03/25 07:26:55;;;;;;;30.45;24.35;;;;;;;12.42;38.01;101289.31;10347655;28;20160;-61
2022/03/25 07:31:57;;;;;;;30.38;24.02;;;;;;;12.53;37.95;101297.41;10342426;28;20246;-61
2022/03/25 07:36:58;;;;;;;31.38;24.90;;;;;;;12.68;38.11;101292.75;10337332;28;20540;-60
2022/03/25 07:41:59;;;;;;;31.02;23.77;;;;;;;12.97;37.47;101287.13;10342659;28;20058;-64
2022/03/25 07:47:01;;;;;;;31.20;25.40;;;;;;;13.19;37.11;101298.88;10343530;28;20632;-60
2022/03/25 07:52:03;;;;;;;29.20;24.02;;;;;;;13.30;36.68;101296.25;10335753;28;20456;-62
2022/03/25 07:57:05;;;;;;;32.50;25.00;;;;;;;13.63;36.36;101292.03;10342340;28;20060;-61
2022/03/25 08:02:07;;;;;;;28.50;23.42;;;;;;;13.84;35.98;101291.31;10337366;28;20076;-63
2022/03/25 08:07:09;;;;;;;31.30;24.17;;;;;;;14.04;35.34;101303.16;10339749;28;20065;-63
2022/03/25 08:12:11;;;;;;;31.35;23.73;;;;;;;14.28;35.29;101300.34;10340973;28;20733;-64
2022/03/25 08:17:12;;;;;;;31.52;25.80;;;;;;;14.50;34.99;101296.78;10337940;28;20053;-67
2022/03/25 08:22:13;;;;;;;35.10;26.02;;;;;;;14.83;34.50;101298.59;10341006;28;20093;-63
2022/03/25 08:32:41;;;;;;;31.40;25.02;;;;;;;15.49;33.99;101304.78;10342635;28;20249;-59
2022/03/25 08:37:42;;;;;;;31.63;27.42;;;;;;;15.76;32.60;101301.59;10340192;28;20219;-61
2022/03/25 08:42:43;;;;;;;35.25;28.27;;;;;;;16.14;31.90;101305.53;10343678;28;20664;-61
2022/03/25 08:47:46;;;;;;;33.20;28.48;;;;;;;16.47;31.61;101311.59;10340900;28;20079;-62
2022/03/25 08:52:48;;;;;;;36.10;28.48;;;;;;;16.76;31.00;101318.88;10340730;28;20065;-61
2022/03/25 08:57:50;;;;;;;33.17;27.50;;;;;;;17.02;30.68;101304.94;10343303;28;20053;-62
2022/03/25 09:02:51;;;;;;;38.33;29.02;;;;;;;17.28;30.88;101310.63;10341008;28;20050;-60
2022/03/25 09:07:52;;;;;;;36.80;29.23;;;;;;;17.43;29.73;101294.88;10339164;28;20053;-61
2022/03/25 09:12:54;;;;;;;32.78;29.17;;;;;;;17.69;30.01;101310.47;10339248;28;20053;-61
2022/03/25 09:17:55;;;;;;;32.42;28.83;;;;;;;18.05;29.27;101313.38;10343699;28;20050;-61
2022/03/25 09:22:56;;;;;;;35.35;29.50;;;;;;;18.31;29.04;101311.69;10338347;28;20132;-62
2022/03/25 09:27:58;;;;;;;36.05;29.95;;;;;;;18.70;28.47;101307.97;10340053;28;20056;-62
2022/03/25 09:32:59;;;;;;;31.08;27.55;;;;;;;19.03;28.61;101309.19;10342761;28;20052;-61
2022/03/25 09:38:07;;;;;;;33.63;28.88;;;;;;;19.39;28.15;101301.06;10370973;28;20089;-61
2022/03/25 09:43:08;;;;;;;34.15;29.48;;;;;;;19.78;27.43;101319.63;10344122;28;20053;-62
2022/03/25 09:48:13;;;;;;;34.47;30.77;;;;;;;20.44;26.67;101309.19;10346412;28;20085;-61
2022/03/25 09:53:14;;;;;;;31.02;26.90;;;;;;;20.70;26.60;101319.13;10353560;28;20120;-62
2022/03/25 09:58:19;;;;;;;36.03;30.10;;;;;;;21.10;25.63;101308.56;10341641;28;20132;-62
2022/03/25 10:03:22;;;;;;;35.75;29.00;;;;;;;21.58;25.28;101308.81;10338506;28;20049;-60
2022/03/25 10:08:29;;;;;;;37.70;31.05;;;;;;;22.12;24.18;101303.59;10338270;28;20045;-61
2022/03/25 10:13:31;;;;;;;35.00;30.15;;;;;;;22.75;23.54;101303.72;10338613;28;20041;-61
2022/03/25 10:18:32;;;;;;;33.75;30.25;;;;;;;24.62;21.61;101290.47;10339326;28;20045;-60
2022/03/25 10:23:33;;;;;;;34.10;30.45;;;;;;;28.02;17.70;101300.63;10329332;28;20276;-62
2022/03/25 10:28:40;;;;;;;33.13;29.67;;;;;;;29.64;15.87;101306.94;10333551;28;20795;-61
2022/03/25 10:33:50;;;;;;;32.97;28.98;;;;;;;28.94;16.47;101302.34;10337911;28;20156;-60
2022/03/25 10:39:06;;;;;;;33.42;29.88;;;;;;;27.89;18.34;101297.88;10334793;28;20045;-62
2022/03/25 10:44:10;;;;;;;35.17;31.48;;;;;;;27.37;18.69;101298.53;10337202;28;20045;-61
2022/03/25 10:49:17;;;;;;;35.40;32.00;;;;;;;29.35;16.57;101303.78;10331371;28;20075;-61
2022/03/25 10:54:24;;;;;;;34.17;30.70;;;;;;;33.00;13.21;101284.88;10339860;28;20067;-61
2022/03/25 10:59:30;;;;;;;34.80;31.35;;;;;;;35.22;11.76;101290.34;10338793;28;20072;-60
2022/03/25 11:04:32;;;;;;;66.63;35.03;;;;;;;36.26;11.31;101289.91;10334380;28;20057;-64
2022/03/25 11:09:34;;;;;;;33.67;30.10;;;;;;;37.43;9.76;101298.75;10334307;28;20452;-60
2022/03/25 11:14:35;;;;;;;32.30;29.10;;;;;;;38.01;9.52;101276.16;10335544;28;20682;-65
2022/03/25 11:19:37;;;;;;;31.45;28.20;;;;;;;38.99;8.87;101295.09;10340002;28;20565;-64
2022/03/25 11:24:54;;;;;;;31.55;28.67;;;;;;;39.37;8.13;101283.38;10338581;28;20552;-65
2022/03/25 11:30:02;;;;;;;32.35;29.27;;;;;;;39.64;8.09;101277.28;10346095;28;20057;-62
2022/03/25 11:35:03;;;;;;;31.95;28.92;;;;;;;39.81;7.83;101275.97;10346946;28;20053;-62
2022/03/25 11:40:20;;;;;;;27.92;25.25;;;;;;;40.20;8.26;101272.16;10345405;28;20172;-61
2022/03/25 11:45:37;;;;;;;32.00;29.15;;;;;;;40.47;7.95;101268.72;10349074;28;20817;-62
2022/03/25 11:50:43;;;;;;;30.50;27.85;;;;;;;40.53;7.13;101263.91;10344764;28;20046;-62
2022/03/25 11:55:55;;;;;;;29.58;26.52;;;;;;;41.05;7.48;101239.66;10344771;28;20053;-65
2022/03/25 12:01:12;;;;;;;30.77;28.17;;;;;;;41.42;7.24;101245.44;10346868;28;20131;-62
2022/03/25 12:06:14;;;;;;;30.75;28.15;;;;;;;41.55;7.31;101243.78;10341063;28;20055;-64
2022/03/25 12:11:16;;;;;;;31.00;28.33;;;;;;;42.01;6.87;101237.28;10340307;28;20053;-63
2022/03/25 12:16:46;;;;;;;31.75;29.20;;;;;;;42.50;6.46;101235.59;10342413;28;20155;-63
2022/03/25 12:21:48;;;;;;;29.95;27.38;;;;;;;42.69;5.97;101215.03;10342332;28;20548;-71
2022/03/25 12:27:00;;;;;;;28.88;26.38;;;;;;;43.00;5.85;101222.66;10337645;28;20050;-64
2022/03/25 12:32:06;;;;;;;30.65;28.15;;;;;;;43.22;6.19;101218.97;10339821;28;20061;-64
2022/03/25 12:37:21;;;;;;;28.25;25.77;;;;;;;43.23;5.43;101220.66;10337771;28;20156;-64
2022/03/25 12:42:27;;;;;;;28.35;26.05;;;;;;;43.55;5.26;101211.06;10344929;28;20055;-65
2022/03/25 12:47:34;;;;;;;30.25;27.92;;;;;;;42.48;6.26;101192.31;10344136;28;20106;-65
2022/03/25 12:52:35;;;;;;;26.48;24.27;;;;;;;42.91;5.48;101192.63;10336951;28;20056;-65
2022/03/25 12:57:39;;;;;;;26.42;24.42;;;;;;;42.37;5.66;101188.94;10341950;28;20648;-64
2022/03/25 13:02:44;;;;;;;25.65;23.50;;;;;;;43.18;5.80;101188.00;10340469;28;20137;-65
2022/03/25 13:07:48;;;;;;;26.73;24.45;;;;;;;43.16;5.32;101178.28;10355192;28;20053;-64
2022/03/25 13:12:52;;;;;;;26.02;23.83;;;;;;;42.27;5.63;101175.19;10342872;28;20100;-63
2022/03/25 13:17:56;;;;;;;25.98;23.80;;;;;;;41.89;6.01;101158.69;10347400;28;20064;-63
2022/03/25 13:23:13;;;;;;;24.95;22.80;;;;;;;41.66;5.78;101172.56;10339223;28;20057;-64
2022/03/25 13:28:35;;;;;;;22.10;20.30;;;;;;;40.91;5.78;101169.00;10339379;28;20883;-63
2022/03/25 13:33:51;;;;;;;25.23;23.13;;;;;;;39.68;6.46;101172.47;10335914;28;20037;-64
2022/03/25 13:38:54;;;;;;;25.02;22.92;;;;;;;36.71;7.89;101165.56;10338290;28;20089;-62
2022/03/25 13:44:05;;;;;;;24.40;22.45;;;;;;;33.54;9.92;101160.22;10342306;28;20058;-62
2022/03/25 13:49:09;;;;;;;25.98;23.77;;;;;;;31.97;11.18;101145.97;10342205;28;20052;-62
2022/03/25 13:54:13;;;;;;;25.52;23.17;;;;;;;31.25;11.44;101151.84;10341966;28;20049;-62
2022/03/25 13:59:30;;;;;;;25.45;23.35;;;;;;;30.42;12.47;101160.78;10338684;28;20306;-61
2022/03/25 14:04:32;;;;;;;28.90;26.13;;;;;;;29.25;13.08;101150.75;10335981;28;20060;-60
2022/03/25 14:09:35;;;;;;;30.90;28.17;;;;;;;28.47;14.20;101144.59;10336909;28;20700;-60
2022/03/25 14:14:36;;;;;;;29.95;27.13;;;;;;;28.16;15.06;101146.25;10338622;28;20532;-61
2022/03/25 14:19:38;;;;;;;32.28;29.17;;;;;;;27.67;15.31;101134.03;10342383;28;20129;-61
2022/03/25 14:24:40;;;;;;;;;;;;;;;25.87;17.18;101140.19;10349460;28;20659;-60
2022/03/25 14:29:41;;;;;;;31.17;28.13;;;;;;;26.08;16.67;101134.59;10345872;28;19964;-61
2022/03/25 14:34:44;;;;;;;32.60;29.20;;;;;;;25.72;16.57;101127.50;10339691;28;20049;-60
2022/03/25 14:39:45;;;;;;;29.35;26.23;;;;;;;25.58;16.72;101136.66;10339157;28;20053;-61
2022/03/25 14:44:49;;;;;;;37.87;29.23;;;;;;;25.11;17.71;101135.50;10347392;28;20045;-61
2022/03/25 14:49:52;;;;;;;31.85;28.55;;;;;;;24.76;18.24;101133.56;10350720;28;20329;-60
2022/03/25 14:54:55;;;;;;;32.05;28.65;;;;;;;24.62;17.94;101127.16;10351217;28;20089;-64
2022/03/25 14:59:57;;;;;;;31.58;28.02;;;;;;;24.03;18.44;101116.44;10350963;28;20049;-61
2022/03/25 15:05:00;;;;;;;37.65;30.85;;;;;;;23.67;18.88;101115.34;10359578;28;20060;-60
2022/03/25 15:10:03;;;;;;;30.98;27.80;;;;;;;23.28;18.96;101128.22;10357597;28;20605;-62
2022/03/25 15:15:05;;;;;;;;;;;;;;;23.20;19.56;101127.44;10355789;28;20050;-63
2022/03/25 15:20:07;;;;;;;30.60;27.33;;;;;;;22.87;20.02;101125.84;10356341;28;20050;-62
2022/03/25 15:25:09;;;;;;;30.60;27.40;;;;;;;22.16;20.89;101127.84;10354411;28;20184;-61
2022/03/25 15:35:31;;;;;;;30.05;26.90;;;;;;;22.11;20.92;101122.97;10355395;28;20054;-61
2022/03/25 15:40:41;;;;;;;29.35;25.60;;;;;;;21.95;20.63;101125.78;10359435;28;20057;-62
2022/03/25 15:45:46;;;;;;;31.15;27.95;;;;;;;21.60;20.92;101109.00;10355422;28;20141;-61
2022/03/25 15:50:47;;;;;;;28.02;24.95;;;;;;;21.31;21.15;101107.72;10357421;28;20084;-61
2022/03/25 15:55:49;;;;;;;29.75;26.08;;;;;;;21.06;21.10;101123.16;10359688;28;20045;-62
2022/03/25 16:00:50;;;;;;;29.42;26.13;;;;;;;20.81;21.59;101105.09;10360468;28;20042;-61
2022/03/25 16:05:52;;;;;;;28.33;25.42;;;;;;;20.55;21.75;101115.19;10357133;28;20527;-63
2022/03/25 16:10:54;;;;;;;28.17;25.30;;;;;;;20.39;22.30;101126.84;10356443;28;20101;-61
2022/03/25 16:15:55;;;;;;;28.42;25.38;;;;;;;20.17;22.29;101129.16;10354052;28;20054;-60
2022/03/25 16:20:58;;;;;;;26.92;24.15;;;;;;;19.95;23.14;101136.00;10353790;28;20153;-61
2022/03/25 16:25:59;;;;;;;32.60;25.58;;;;;;;19.91;22.85;101134.66;10353617;28;20139;-63
2022/03/25 16:31:01;;;;;;;29.25;25.88;;;;;;;19.80;23.11;101130.38;10352572;28;20045;-61
2022/03/25 16:36:03;;;;;;;29.50;24.33;;;;;;;19.61;23.20;101139.56;10352063;28;20523;-61
2022/03/25 16:41:04;;;;;;;26.85;23.67;;;;;;;19.61;23.04;101153.91;10355036;28;20074;-62
2022/03/25 16:46:06;;;;;;;26.55;23.63;;;;;;;19.58;22.73;101148.84;10352403;28;20049;-62
2022/03/25 16:51:08;;;;;;;32.05;23.05;;;;;;;19.32;22.79;101142.59;10356310;28;20404;-62
2022/03/25 16:56:09;;;;;;;27.92;23.35;;;;;;;19.06;23.13;101146.97;10351383;28;20049;-62
2022/03/25 17:01:11;;;;;;;29.08;25.00;;;;;;;19.01;23.57;101170.91;10352771;28;20683;-62
2022/03/25 17:06:13;;;;;;;30.25;23.35;;;;;;;18.83;23.31;101151.16;10351461;28;20327;-61
2022/03/25 17:11:14;;;;;;;27.27;21.45;;;;;;;18.71;23.30;101164.88;10352146;28;20056;-62
2022/03/25 17:16:16;;;;;;;25.27;22.58;;;;;;;18.55;23.68;101172.81;10352534;28;20044;-61
2022/03/25 17:21:18;;;;;;;27.38;23.85;;;;;;;18.46;24.43;101165.66;10352129;28;20229;-63
2022/03/25 17:26:20;;;;;;;27.60;23.67;;;;;;;18.37;24.95;101173.66;10349800;28;20054;-61
2022/03/25 17:31:21;;;;;;;26.55;23.27;;;;;;;18.18;25.26;101179.19;10352140;28;20099;-61
2022/03/25 17:36:23;;;;;;;31.40;22.88;;;;;;;17.99;25.72;101180.97;10350179;28;20060;-62
2022/03/25 17:41:24;;;;;;;26.90;23.77;;;;;;;17.80;26.04;101175.63;10350978;28;20053;-61
2022/03/25 17:46:26;;;;;;;28.23;23.85;;;;;;;17.69;26.71;101189.28;10352318;28;20052;-61
2022/03/25 17:51:27;;;;;;;30.83;23.30;;;;;;;17.53;27.06;101179.97;10349001;28;20045;-62
2022/03/25 17:56:29;;;;;;;27.90;22.23;;;;;;;17.39;27.20;101188.53;10355120;28;20574;-61
2022/03/25 18:01:35;;;;;;;31.50;23.60;;;;;;;17.29;27.24;101189.41;10352118;28;20059;-64
2022/03/25 18:06:39;;;;;;;27.92;24.05;;;;;;;17.05;27.56;101197.06;10351145;28;20049;-63
2022/03/25 18:11:40;;;;;;;30.77;25.70;;;;;;;16.96;27.80;101213.09;10354082;28;20135;-62
2022/03/25 18:16:42;;;;;;;27.90;23.85;;;;;;;16.87;27.50;101216.59;10348682;28;20049;-62
2022/03/25 18:21:43;;;;;;;30.60;23.92;;;;;;;16.75;27.77;101220.38;10346760;28;20087;-61
2022/03/25 18:26:45;;;;;;;29.35;23.13;;;;;;;16.70;28.01;101220.81;10353132;28;20112;-63
2022/03/25 18:31:47;;;;;;;27.65;23.00;;;;;;;16.60;28.10;101226.19;10347785;28;20041;-62
2022/03/25 18:36:48;;;;;;;28.75;23.55;;;;;;;16.49;28.39;101223.59;10352620;28;20053;-61
2022/03/25 18:41:50;;;;;;;25.27;21.25;;;;;;;16.37;28.20;101224.72;10363423;28;20068;-61
2022/03/25 18:46:51;;;;;;;27.05;22.27;;;;;;;16.31;27.93;101236.03;10365129;28;20060;-62
2022/03/25 18:51:53;;;;;;;28.27;20.33;;;;;;;16.15;27.74;101241.91;10359418;28;20038;-63
2022/03/25 18:56:54;;;;;;;25.42;18.30;;;;;;;15.96;27.91;101242.66;10360468;28;20132;-62
2022/03/25 19:01:55;;;;;;;26.40;18.83;;;;;;;15.79;28.23;101212.78;10354888;28;20466;-62
2022/03/25 19:06:57;;;;;;;26.40;19.85;;;;;;;15.97;28.20;101241.69;10361018;28;20049;-63
2022/03/25 19:11:58;;;;;;;23.27;17.17;;;;;;;15.85;27.64;101251.66;10355406;28;20124;-62
2022/03/25 19:17:00;;;;;;;23.67;18.55;;;;;;;15.84;27.26;101261.56;10357539;28;20073;-62
2022/03/25 19:22:03;;;;;;;22.02;18.48;;;;;;;15.80;27.93;101259.28;10357099;28;20057;-62
2022/03/25 19:27:05;;;;;;;23.55;18.35;;;;;;;15.67;27.36;101260.31;10361051;28;20050;-61
2022/03/25 19:32:07;;;;;;;21.60;15.77;;;;;;;15.60;27.01;101261.81;10357307;28;20045;-62
2022/03/25 19:37:08;;;;;;;22.52;15.52;;;;;;;15.53;26.68;101280.25;10361001;28;20045;-63
2022/03/25 19:42:10;;;;;;;21.38;15.73;;;;;;;15.47;26.76;101280.78;10358529;28;20060;-63
2022/03/25 19:47:11;;;;;;;18.75;15.02;;;;;;;15.28;26.99;101277.94;10356544;28;20059;-62
2022/03/25 19:52:13;;;;;;;20.88;16.27;;;;;;;15.28;27.44;101288.69;10355591;28;20054;-62
2022/03/25 19:57:14;;;;;;;23.05;17.00;;;;;;;15.23;27.48;101289.06;10358465;28;20049;-62
2022/03/25 20:02:17;;;;;;;19.75;16.63;;;;;;;15.07;27.26;101285.97;10358323;28;21064;-63
2022/03/25 20:07:18;;;;;;;20.10;15.45;;;;;;;14.83;27.54;101266.44;10360876;28;20056;-61
2022/03/25 20:12:20;;;;;;;28.08;16.40;;;;;;;14.95;27.68;101299.44;10357847;28;20099;-62
2022/03/25 20:17:21;;;;;;;24.17;16.42;;;;;;;14.92;27.39;101302.38;10358794;28;20127;-62
2022/03/25 20:22:25;;;;;;;22.52;16.13;;;;;;;14.79;27.45;101312.38;10357557;28;20488;-62
2022/03/25 20:27:26;;;;;;;20.30;15.57;;;;;;;14.69;27.47;101303.38;10362501;28;20419;-62
2022/03/25 20:32:28;;;;;;;19.90;15.95;;;;;;;14.63;27.80;101313.59;10358297;28;20048;-62
2022/03/25 20:37:29;;;;;;;23.83;17.48;;;;;;;14.49;28.33;101325.41;10356452;28;20049;-63
2022/03/25 20:42:31;;;;;;;26.20;18.15;;;;;;;14.42;28.39;101339.41;10356335;28;20128;-62
2022/03/25 20:47:32;;;;;;;23.88;15.07;;;;;;;14.19;28.61;101341.25;10356585;28;20050;-62
2022/03/25 20:52:33;;;;;;;26.30;17.70;;;;;;;13.92;28.88;101335.25;10350515;28;20636;-62
2022/03/25 20:57:36;;;;;;;21.30;17.10;;;;;;;13.67;29.14;101297.97;10351890;28;20419;-62
2022/03/25 21:02:37;;;;;;;22.75;16.30;;;;;;;13.90;28.60;101330.97;10351652;28;20132;-63
2022/03/25 21:07:39;;;;;;;22.48;16.67;;;;;;;13.93;28.71;101336.97;10355571;28;20234;-62
2022/03/25 21:12:40;;;;;;;18.45;15.63;;;;;;;13.93;28.33;101338.75;10351222;28;20168;-62
2022/03/25 21:17:42;;;;;;;23.50;15.20;;;;;;;13.90;28.45;101349.72;10354301;28;20057;-61
2022/03/25 21:22:43;;;;;;;21.27;17.40;;;;;;;13.87;28.70;101336.56;10362340;28;20141;-62
2022/03/25 21:27:44;;;;;;;24.10;16.50;;;;;;;13.86;28.69;101335.72;10352721;28;20152;-62
2022/03/25 21:32:46;;;;;;;23.10;17.20;;;;;;;13.79;28.77;101340.69;10358030;28;20772;-62
2022/03/25 21:37:47;;;;;;;21.80;17.13;;;;;;;13.74;28.86;101342.88;10354556;28;20058;-62
2022/03/25 21:42:48;;;;;;;23.00;16.85;;;;;;;13.76;29.26;101351.63;10354879;28;20050;-62
2022/03/25 21:47:50;;;;;;;22.25;16.08;;;;;;;13.71;29.12;101353.81;10349859;28;20056;-63
2022/03/25 21:52:52;;;;;;;24.35;16.10;;;;;;;13.66;29.16;101356.00;10352479;28;20051;-61
2022/03/25 21:57:53;;;;;;;30.92;17.40;;;;;;;13.61;29.20;101360.81;10353848;28;20371;-62
2022/03/25 22:02:55;;;;;;;26.52;16.20;;;;;;;13.58;29.50;101363.72;10351040;28;20742;-62
2022/03/25 22:07:57;;;;;;;22.25;15.70;;;;;;;13.44;29.79;101365.63;10352298;28;20057;-64
2022/03/25 22:13:01;;;;;;;22.80;16.38;;;;;;;13.36;30.43;101385.88;10352420;28;20053;-62
2022/03/25 22:18:03;;;;;;;22.60;17.40;;;;;;;13.19;30.57;101389.78;10355059;28;20049;-61
2022/03/25 22:23:04;;;;;;;20.80;17.40;;;;;;;13.09;30.36;101379.75;10350919;28;20504;-65
2022/03/25 22:28:16;;;;;;;24.15;17.67;;;;;;;13.01;30.54;101382.13;10349952;28;20053;-60
2022/03/25 22:33:19;;;;;;;23.10;17.52;;;;;;;12.96;30.78;101392.31;10354703;28;20517;-62
2022/03/25 22:38:20;;;;;;;22.77;17.38;;;;;;;12.84;30.83;101385.19;10355107;28;20046;-62
2022/03/25 22:43:22;;;;;;;20.80;16.30;;;;;;;12.91;30.94;101398.00;10355744;28;20056;-62
2022/03/25 22:48:23;;;;;;;23.83;16.63;;;;;;;12.85;30.86;101394.88;10352159;28;20045;-62
2022/03/25 22:53:24;;;;;;;22.45;16.55;;;;;;;12.84;30.85;101403.88;10356890;28;20057;-61